sensor_id;sensor_type;location;lat;lon;timestamp;pressure;altitude;pressure_sealevel;temperature;humidity
75891;BME280;64571;47.512;19.054;2023-07-02T00:02:26;99409.19;;;23.75;64.39
75891;BME280;64571;47.512;19.054;2023-07-02T00:05:30;99420.94;;;23.63;64.73
75891;BME280;64571;47.512;19.054;2023-07-02T00:08:32;99414.09;;;23.60;64.66
75891;BME280;64571;47.512;19.054;2023-07-02T00:11:35;99418.56;;;23.50;64.97
75891;BME280;64571;47.512;19.054;2023-07-02T00:14:37;99420.19;;;23.52;64.96
75891;BME280;64571;47.512;19.054;2023-07-02T00:17:40;99418.56;;;23.50;64.90
75891;BME280;64571;47.512;19.054;2023-07-02T00:20:43;99410.06;;;23.47;65.00
75891;BME280;64571;47.512;19.054;2023-07-02T00:23:46;99420.19;;;23.44;64.93
75891;BME280;64571;47.512;19.054;2023-07-02T00:26:49;99413.72;;;23.47;64.75
75891;BME280;64571;47.512;19.054;2023-07-02T00:29:52;99410.09;;;23.43;64.79
75891;BME280;64571;47.512;19.054;2023-07-02T00:32:55;99411.31;;;23.39;64.79
75891;BME280;64571;47.512;19.054;2023-07-02T00:35:58;99408.06;;;23.37;64.87
75891;BME280;64571;47.512;19.054;2023-07-02T00:39:02;99406.84;;;23.38;64.56
75891;BME280;64571;47.512;19.054;2023-07-02T00:42:06;99406.44;;;23.39;64.24
75891;BME280;64571;47.512;19.054;2023-07-02T00:45:10;99409.22;;;23.50;63.89
75891;BME280;64571;47.512;19.054;2023-07-02T00:48:12;99403.97;;;23.48;63.72
75891;BME280;64571;47.512;19.054;2023-07-02T00:51:17;99403.59;;;23.43;63.57
75891;BME280;64571;47.512;19.054;2023-07-02T00:54:20;99406.44;;;23.46;63.41
75891;BME280;64571;47.512;19.054;2023-07-02T00:57:22;99407.25;;;23.43;63.53
75891;BME280;64571;47.512;19.054;2023-07-02T01:00:25;99406.41;;;23.50;63.10
75891;BME280;64571;47.512;19.054;2023-07-02T01:03:27;99408.06;;;23.40;63.24
75891;BME280;64571;47.512;19.054;2023-07-02T01:06:33;99408.06;;;23.40;63.22
75891;BME280;64571;47.512;19.054;2023-07-02T01:09:36;99404.41;;;23.43;62.83
75891;BME280;64571;47.512;19.054;2023-07-02T01:12:41;99412.50;;;23.41;62.90
75891;BME280;64571;47.512;19.054;2023-07-02T01:15:44;99416.19;;;23.31;62.24
75891;BME280;64571;47.512;19.054;2023-07-02T01:18:48;99404.84;;;23.38;61.42
75891;BME280;64571;47.512;19.054;2023-07-02T01:21:53;99417.78;;;23.39;60.71
75891;BME280;64571;47.512;19.054;2023-07-02T01:24:55;99412.13;;;23.39;60.29
75891;BME280;64571;47.512;19.054;2023-07-02T01:27:58;99412.09;;;23.46;60.07
75891;BME280;64571;47.512;19.054;2023-07-02T01:31:03;99408.06;;;23.37;59.68
75891;BME280;64571;47.512;19.054;2023-07-02T01:34:05;99417.78;;;23.46;59.60
75891;BME280;64571;47.512;19.054;2023-07-02T01:37:10;99414.91;;;23.54;58.85
75891;BME280;64571;47.512;19.054;2023-07-02T01:40:13;99419.38;;;23.51;59.08
75891;BME280;64571;47.512;19.054;2023-07-02T01:43:16;99418.97;;;23.53;58.59
75891;BME280;64571;47.512;19.054;2023-07-02T01:46:18;99416.94;;;23.57;58.22
75891;BME280;64571;47.512;19.054;2023-07-02T01:49:21;99412.13;;;23.32;58.84
75891;BME280;64571;47.512;19.054;2023-07-02T01:52:24;99418.22;;;23.31;58.29
75891;BME280;64571;47.512;19.054;2023-07-02T01:55:26;99421.03;;;23.34;57.91
75891;BME280;64571;47.512;19.054;2023-07-02T01:58:29;99423.94;;;23.02;58.56
75891;BME280;64571;47.512;19.054;2023-07-02T02:01:31;99420.28;;;23.02;58.94
75891;BME280;64571;47.512;19.054;2023-07-02T02:04:35;99419.50;;;23.01;58.98
75891;BME280;64571;47.512;19.054;2023-07-02T02:07:37;99411.75;;;23.12;58.68
75891;BME280;64571;47.512;19.054;2023-07-02T02:10:40;99410.53;;;23.13;58.55
75891;BME280;64571;47.512;19.054;2023-07-02T02:13:43;99412.19;;;23.00;58.79
75891;BME280;64571;47.512;19.054;2023-07-02T02:16:45;99421.09;;;23.06;58.50
75891;BME280;64571;47.512;19.054;2023-07-02T02:19:48;99410.56;;;23.03;58.64
75891;BME280;64571;47.512;19.054;2023-07-02T02:22:51;99416.66;;;22.94;58.70
75891;BME280;64571;47.512;19.054;2023-07-02T02:25:53;99408.53;;;22.89;58.51
75891;BME280;64571;47.512;19.054;2023-07-02T02:28:56;99411.34;;;22.82;58.79
75891;BME280;64571;47.512;19.054;2023-07-02T02:31:58;99405.28;;;22.87;58.63
75891;BME280;64571;47.512;19.054;2023-07-02T02:35:02;99411.41;;;22.92;58.21
75891;BME280;64571;47.512;19.054;2023-07-02T02:38:05;99411.41;;;22.92;58.06
75891;BME280;64571;47.512;19.054;2023-07-02T02:41:08;99400.81;;;22.82;58.18
75891;BME280;64571;47.512;19.054;2023-07-02T02:44:11;99401.66;;;22.79;58.06
75891;BME280;64571;47.512;19.054;2023-07-02T02:47:14;99403.66;;;22.86;57.87
75891;BME280;64571;47.512;19.054;2023-07-02T02:50:16;99399.66;;;22.90;57.68
75891;BME280;64571;47.512;19.054;2023-07-02T02:53:19;99403.28;;;22.91;57.76
75891;BME280;64571;47.512;19.054;2023-07-02T02:56:21;99398.44;;;22.95;57.80
75891;BME280;64571;47.512;19.054;2023-07-02T02:59:24;99388.31;;;22.94;57.79
75891;BME280;64571;47.512;19.054;2023-07-02T03:02:26;99395.59;;;22.91;57.77
75891;BME280;64571;47.512;19.054;2023-07-02T03:05:29;99401.25;;;22.84;58.06
75891;BME280;64571;47.512;19.054;2023-07-02T03:08:31;99396.81;;;22.80;58.29
75891;BME280;64571;47.512;19.054;2023-07-02T03:11:34;99395.97;;;22.68;58.25
75891;BME280;64571;47.512;19.054;2023-07-02T03:14:37;99398.03;;;22.61;58.29
75891;BME280;64571;47.512;19.054;2023-07-02T03:17:39;99400.84;;;22.71;57.96
75891;BME280;64571;47.512;19.054;2023-07-02T03:20:42;99402.47;;;22.76;57.75
75891;BME280;64571;47.512;19.054;2023-07-02T03:23:45;99404.47;;;22.86;57.40
75891;BME280;64571;47.512;19.054;2023-07-02T03:26:48;99401.69;;;22.93;57.37
75891;BME280;64571;47.512;19.054;2023-07-02T03:29:51;99401.25;;;22.88;57.33
75891;BME280;64571;47.512;19.054;2023-07-02T03:32:54;99401.66;;;22.75;57.37
75891;BME280;64571;47.512;19.054;2023-07-02T03:35:57;99409.34;;;22.68;57.32
75891;BME280;64571;47.512;19.054;2023-07-02T03:39:00;99410.97;;;22.72;57.24
75891;BME280;64571;47.512;19.054;2023-07-02T03:42:05;99402.06;;;22.70;57.12
75891;BME280;64571;47.512;19.054;2023-07-02T03:45:07;99408.13;;;22.80;57.03
75891;BME280;64571;47.512;19.054;2023-07-02T03:48:10;99412.56;;;22.77;57.01
75891;BME280;64571;47.512;19.054;2023-07-02T03:51:13;99414.59;;;22.73;57.10
75891;BME280;64571;47.512;19.054;2023-07-02T03:54:16;99422.69;;;22.82;56.85
75891;BME280;64571;47.512;19.054;2023-07-02T03:57:20;99424.34;;;22.90;56.83
75891;BME280;64571;47.512;19.054;2023-07-02T04:00:22;99425.16;;;22.90;56.64
75891;BME280;64571;47.512;19.054;2023-07-02T04:03:27;99430.81;;;22.90;57.02
75891;BME280;64571;47.512;19.054;2023-07-02T04:06:29;99428.78;;;22.91;56.81
75891;BME280;64571;47.512;19.054;2023-07-02T04:09:32;99427.16;;;23.00;56.59
75891;BME280;64571;47.512;19.054;2023-07-02T04:12:35;99431.59;;;23.05;56.57
75891;BME280;64571;47.512;19.054;2023-07-02T04:15:38;99435.66;;;23.08;56.58
75891;BME280;64571;47.512;19.054;2023-07-02T04:18:40;99440.91;;;23.09;56.67
75891;BME280;64571;47.512;19.054;2023-07-02T04:21:42;99439.31;;;23.08;57.07
75891;BME280;64571;47.512;19.054;2023-07-02T04:24:45;99440.53;;;23.07;57.36
75891;BME280;64571;47.512;19.054;2023-07-02T04:27:51;99440.53;;;23.00;57.69
75891;BME280;64571;47.512;19.054;2023-07-02T04:30:58;99442.56;;;22.96;57.93
75891;BME280;64571;47.512;19.054;2023-07-02T04:34:01;99447.81;;;23.12;57.59
75891;BME280;64571;47.512;19.054;2023-07-02T04:37:04;99453.88;;;23.21;57.29
75891;BME280;64571;47.512;19.054;2023-07-02T04:40:07;99448.59;;;23.23;57.00
75891;BME280;64571;47.512;19.054;2023-07-02T04:43:12;99451.03;;;23.21;56.89
75891;BME280;64571;47.512;19.054;2023-07-02T04:46:15;99454.31;;;23.02;57.24
75891;BME280;64571;47.512;19.054;2023-07-02T04:49:20;99455.91;;;22.99;57.38
75891;BME280;64571;47.512;19.054;2023-07-02T04:52:22;99457.16;;;23.02;57.21
75891;BME280;64571;47.512;19.054;2023-07-02T04:55:25;99460.78;;;23.13;56.77
75891;BME280;64571;47.512;19.054;2023-07-02T04:58:27;99467.66;;;23.26;56.03
75891;BME280;64571;47.512;19.054;2023-07-02T05:01:30;99463.19;;;23.25;55.83
75891;BME280;64571;47.512;19.054;2023-07-02T05:04:33;99467.22;;;23.31;55.51
75891;BME280;64571;47.512;19.054;2023-07-02T05:07:35;99466.38;;;23.48;54.94
75891;BME280;64571;47.512;19.054;2023-07-02T05:10:38;99466.38;;;23.56;54.48
75891;BME280;64571;47.512;19.054;2023-07-02T05:13:40;99476.88;;;23.73;53.88
75891;BME280;64571;47.512;19.054;2023-07-02T05:16:43;99481.31;;;23.85;53.38
75891;BME280;64571;47.512;19.054;2023-07-02T05:19:45;99483.28;;;23.98;52.96
75891;BME280;64571;47.512;19.054;2023-07-02T05:22:48;99481.59;;;24.15;52.41
75891;BME280;64571;47.512;19.054;2023-07-02T05:25:50;99484.25;;;24.55;51.41
75891;BME280;64571;47.512;19.054;2023-07-02T05:28:53;99487.53;;;25.05;50.26
75891;BME280;64571;47.512;19.054;2023-07-02T05:31:55;99492.06;;;25.44;49.53
75891;BME280;64571;47.512;19.054;2023-07-02T05:34:58;99488.81;;;25.45;49.21
75891;BME280;64571;47.512;19.054;2023-07-02T05:38:00;99499.09;;;24.80;50.78
75891;BME280;64571;47.512;19.054;2023-07-02T05:41:03;99493.69;;;24.30;52.32
75891;BME280;64571;47.512;19.054;2023-07-02T05:44:05;99501.03;;;24.20;52.57
75891;BME280;64571;47.512;19.054;2023-07-02T05:47:08;99503.16;;;24.02;53.19
75891;BME280;64571;47.512;19.054;2023-07-02T05:50:11;99503.25;;;23.70;54.05
75891;BME280;64571;47.512;19.054;2023-07-02T05:53:13;99498.72;;;23.90;53.24
75891;BME280;64571;47.512;19.054;2023-07-02T05:56:16;99500.31;;;24.06;53.24
75891;BME280;64571;47.512;19.054;2023-07-02T05:59:19;99502.72;;;24.11;53.33
75891;BME280;64571;47.512;19.054;2023-07-02T06:02:21;99510.78;;;24.19;53.13
75891;BME280;64571;47.512;19.054;2023-07-02T06:05:24;99513.19;;;24.32;52.79
75891;BME280;64571;47.512;19.054;2023-07-02T06:08:26;99512.41;;;24.24;52.93
75891;BME280;64571;47.512;19.054;2023-07-02T06:11:29;99516.84;;;24.29;52.92
75891;BME280;64571;47.512;19.054;2023-07-02T06:14:31;99512.75;;;24.33;52.21
75891;BME280;64571;47.512;19.054;2023-07-02T06:17:34;99517.28;;;24.16;52.27
75891;BME280;64571;47.512;19.054;2023-07-02T06:20:38;99513.19;;;24.32;52.22
75891;BME280;64571;47.512;19.054;2023-07-02T06:23:44;99514.78;;;24.36;51.65
75891;BME280;64571;47.512;19.054;2023-07-02T06:26:46;99513.16;;;24.42;51.12
75891;BME280;64571;47.512;19.054;2023-07-02T06:29:49;99525.69;;;24.45;50.82
75891;BME280;64571;47.512;19.054;2023-07-02T06:32:54;99528.56;;;24.41;50.77
75891;BME280;64571;47.512;19.054;2023-07-02T06:35:56;99523.34;;;24.22;51.41
75891;BME280;64571;47.512;19.054;2023-07-02T06:38:59;99526.94;;;24.40;51.21
75891;BME280;64571;47.512;19.054;2023-07-02T06:42:02;99532.12;;;24.60;50.76
75891;BME280;64571;47.512;19.054;2023-07-02T06:45:05;99517.59;;;24.47;50.99
75891;BME280;64571;47.512;19.054;2023-07-02T06:48:08;99528.41;;;24.70;50.82
75891;BME280;64571;47.512;19.054;2023-07-02T06:51:10;99534.00;;;24.84;50.77
75891;BME280;64571;47.512;19.054;2023-07-02T06:54:14;99534.66;;;25.10;50.06
75891;BME280;64571;47.512;19.054;2023-07-02T06:57:17;99530.16;;;25.57;48.90
75891;BME280;64571;47.512;19.054;2023-07-02T07:00:20;99526.63;;;25.87;47.77
75891;BME280;64571;47.512;19.054;2023-07-02T07:03:22;99529.09;;;26.54;46.25
75891;BME280;64571;47.512;19.054;2023-07-02T07:06:25;99532.88;;;26.74;44.63
75891;BME280;64571;47.512;19.054;2023-07-02T07:09:27;99537.66;;;26.54;44.52
75891;BME280;64571;47.512;19.054;2023-07-02T07:12:30;99533.06;;;27.17;43.75
75891;BME280;64571;47.512;19.054;2023-07-02T07:15:33;99540.22;;;27.52;41.97
75891;BME280;64571;47.512;19.054;2023-07-02T07:18:39;99542.31;;;27.48;40.88
75891;BME280;64571;47.512;19.054;2023-07-02T07:21:42;99546.44;;;27.47;40.81
75891;BME280;64571;47.512;19.054;2023-07-02T07:24:46;99551.44;;;27.87;40.18
75891;BME280;64571;47.512;19.054;2023-07-02T07:27:48;99552.56;;;28.13;40.54
75891;BME280;64571;47.512;19.054;2023-07-02T07:30:51;99546.66;;;28.23;40.40
75891;BME280;64571;47.512;19.054;2023-07-02T07:33:54;99550.28;;;28.04;39.95
75891;BME280;64571;47.512;19.054;2023-07-02T07:36:56;99558.84;;;28.04;39.78
75891;BME280;64571;47.512;19.054;2023-07-02T07:39:59;99562.53;;;28.05;39.77
75891;BME280;64571;47.512;19.054;2023-07-02T07:43:01;99566.03;;;28.32;39.85
75891;BME280;64571;47.512;19.054;2023-07-02T07:46:04;99568.25;;;28.24;40.13
75891;BME280;64571;47.512;19.054;2023-07-02T07:49:06;99569.53;;;28.43;39.28
75891;BME280;64571;47.512;19.054;2023-07-02T07:52:09;99565.91;;;28.19;39.16
75891;BME280;64571;47.512;19.054;2023-07-02T07:55:11;99574.81;;;28.81;38.48
75891;BME280;64571;47.512;19.054;2023-07-02T07:58:14;99577.50;;;28.72;39.13
75891;BME280;64571;47.512;19.054;2023-07-02T08:01:17;99575.88;;;28.71;39.24
75891;BME280;64571;47.512;19.054;2023-07-02T08:04:19;99574.00;;;28.44;39.80
75891;BME280;64571;47.512;19.054;2023-07-02T08:07:22;99577.13;;;28.70;39.91
75891;BME280;64571;47.512;19.054;2023-07-02T08:10:24;99574.34;;;28.26;40.89
75891;BME280;64571;47.512;19.054;2023-07-02T08:13:27;99587.38;;;28.27;40.75
75891;BME280;64571;47.512;19.054;2023-07-02T08:16:30;99585.31;;;28.08;41.12
75891;BME280;64571;47.512;19.054;2023-07-02T08:19:32;99587.88;;;28.02;41.55
75891;BME280;64571;47.512;19.054;2023-07-02T08:22:37;99593.41;;;27.90;41.86
75891;BME280;64571;47.512;19.054;2023-07-02T08:25:39;99596.69;;;28.12;41.32
75891;BME280;64571;47.512;19.054;2023-07-02T08:28:42;99600.25;;;27.72;43.18
75891;BME280;64571;47.512;19.054;2023-07-02T08:31:44;99599.88;;;27.47;43.81
75891;BME280;64571;47.512;19.054;2023-07-02T08:34:47;99604.37;;;27.68;43.35
75891;BME280;64571;47.512;19.054;2023-07-02T08:37:49;99612.78;;;27.28;44.34
75891;BME280;64571;47.512;19.054;2023-07-02T08:40:52;99613.00;;;27.14;44.55
75891;BME280;64571;47.512;19.054;2023-07-02T08:43:55;99610.53;;;27.16;44.39
75891;BME280;64571;47.512;19.054;2023-07-02T08:46:59;99614.84;;;27.27;44.15
75891;BME280;64571;47.512;19.054;2023-07-02T08:50:02;99620.22;;;27.22;44.18
75891;BME280;64571;47.512;19.054;2023-07-02T08:53:05;99617.16;;;27.60;43.48
75891;BME280;64571;47.512;19.054;2023-07-02T08:56:08;99612.84;;;27.51;43.12
75891;BME280;64571;47.512;19.054;2023-07-02T08:59:11;99619.44;;;27.72;42.78
75891;BME280;64571;47.512;19.054;2023-07-02T09:02:14;99614.16;;;27.70;42.48
75891;BME280;64571;47.512;19.054;2023-07-02T09:05:17;99629.63;;;27.96;41.95
75891;BME280;64571;47.512;19.054;2023-07-02T09:08:26;99620.94;;;27.80;41.94
75891;BME280;64571;47.512;19.054;2023-07-02T09:11:29;99630.25;;;27.34;42.77
75891;BME280;64571;47.512;19.054;2023-07-02T09:14:32;99626.97;;;27.59;42.32
75891;BME280;64571;47.512;19.054;2023-07-02T09:17:36;99627.13;;;27.51;42.26
75891;BME280;64571;47.512;19.054;2023-07-02T09:20:39;99627.81;;;27.32;43.01
75891;BME280;64571;47.512;19.054;2023-07-02T09:23:41;99629.63;;;27.96;41.80
75891;BME280;64571;47.512;19.054;2023-07-02T09:29:52;99615.84;;;28.55;39.81
75891;BME280;64571;47.512;19.054;2023-07-02T09:32:54;99617.53;;;28.72;39.96
75891;BME280;64571;47.512;19.054;2023-07-02T09:36:08;99623.59;;;28.94;40.03
75891;BME280;64571;47.512;19.054;2023-07-02T09:39:18;99626.03;;;28.95;40.38
75891;BME280;64571;47.512;19.054;2023-07-02T09:42:21;99621.09;;;28.60;39.96
75891;BME280;64571;47.512;19.054;2023-07-02T09:45:24;99616.44;;;28.66;39.99
75891;BME280;64571;47.512;19.054;2023-07-02T09:48:29;99617.59;;;28.68;40.08
75891;BME280;64571;47.512;19.054;2023-07-02T09:51:34;99611.03;;;28.08;39.41
75891;BME280;64571;47.512;19.054;2023-07-02T09:54:39;99619.47;;;28.15;39.75
75891;BME280;64571;47.512;19.054;2023-07-02T09:57:43;99624.16;;;28.49;39.69
75891;BME280;64571;47.512;19.054;2023-07-02T10:00:46;99621.09;;;28.16;40.61
75891;BME280;64571;47.512;19.054;2023-07-02T10:03:49;99614.41;;;28.46;39.83
75891;BME280;64571;47.512;19.054;2023-07-02T10:06:55;99619.19;;;28.89;39.41
75891;BME280;64571;47.512;19.054;2023-07-02T10:09:58;99619.00;;;28.80;39.74
75891;BME280;64571;47.512;19.054;2023-07-02T10:13:01;99624.84;;;28.33;40.71
75891;BME280;64571;47.512;19.054;2023-07-02T10:16:05;99613.47;;;28.30;40.86
75891;BME280;64571;47.512;19.054;2023-07-02T10:19:11;99637.72;;;28.01;40.40
75891;BME280;64571;47.512;19.054;2023-07-02T10:22:14;99632.38;;;28.47;39.60
75891;BME280;64571;47.512;19.054;2023-07-02T10:25:30;99633.19;;;28.24;40.01
75891;BME280;64571;47.512;19.054;2023-07-02T10:28:33;99620.47;;;28.29;40.40
75891;BME280;64571;47.512;19.054;2023-07-02T10:31:36;99619.00;;;28.80;39.39
75891;BME280;64571;47.512;19.054;2023-07-02T10:34:39;99613.44;;;28.73;39.52
75891;BME280;64571;47.512;19.054;2023-07-02T10:37:42;99610.22;;;28.71;38.83
75891;BME280;64571;47.512;19.054;2023-07-02T10:40:45;99608.44;;;28.97;38.82
75891;BME280;64571;47.512;19.054;2023-07-02T10:43:48;99609.34;;;28.74;39.68
75891;BME280;64571;47.512;19.054;2023-07-02T10:46:51;99603.59;;;28.54;40.20
75891;BME280;64571;47.512;19.054;2023-07-02T10:49:54;99606.78;;;29.16;39.25
75891;BME280;64571;47.512;19.054;2023-07-02T10:52:57;99605.91;;;29.19;38.95
75891;BME280;64571;47.512;19.054;2023-07-02T10:55:59;99604.22;;;28.65;40.00
75891;BME280;64571;47.512;19.054;2023-07-02T10:59:03;99599.97;;;29.10;38.59
75891;BME280;64571;47.512;19.054;2023-07-02T11:02:05;99609.16;;;29.70;36.99
75891;BME280;64571;47.512;19.054;2023-07-02T11:05:09;99612.91;;;29.67;37.26
75891;BME280;64571;47.512;19.054;2023-07-02T11:08:15;99598.28;;;29.94;37.26
75891;BME280;64571;47.512;19.054;2023-07-02T11:11:18;99590.78;;;29.67;38.21
75891;BME280;64571;47.512;19.054;2023-07-02T11:14:47;99602.47;;;29.60;37.66
75891;BME280;64571;47.512;19.054;2023-07-02T11:17:49;99605.13;;;29.51;37.46
75891;BME280;64571;47.512;19.054;2023-07-02T11:20:52;99598.56;;;29.99;36.52
75891;BME280;64571;47.512;19.054;2023-07-02T11:24:06;99598.44;;;30.03;36.33
75891;BME280;64571;47.512;19.054;2023-07-02T11:27:08;99596.25;;;29.78;35.88
75891;BME280;64571;47.512;19.054;2023-07-02T11:30:12;99588.59;;;29.06;37.00
75891;BME280;64571;47.512;19.054;2023-07-02T11:33:14;99594.63;;;29.44;36.05
75891;BME280;64571;47.512;19.054;2023-07-02T11:36:22;99587.19;;;28.94;37.36
75891;BME280;64571;47.512;19.054;2023-07-02T11:39:25;99587.72;;;29.25;37.41
75891;BME280;64571;47.512;19.054;2023-07-02T11:42:29;99596.78;;;29.24;37.86
75891;BME280;64571;47.512;19.054;2023-07-02T11:45:32;99591.94;;;29.53;37.59
75891;BME280;64571;47.512;19.054;2023-07-02T11:48:35;99599.25;;;29.06;38.36
75891;BME280;64571;47.512;19.054;2023-07-02T11:51:38;99600.47;;;28.48;39.29
75891;BME280;64571;47.512;19.054;2023-07-02T11:54:41;99599.56;;;28.91;38.20
75891;BME280;64571;47.512;19.054;2023-07-02T11:57:43;99598.91;;;29.20;37.83
75891;BME280;64571;47.512;19.054;2023-07-02T12:00:49;99596.25;;;29.78;35.98
75891;BME280;64571;47.512;19.054;2023-07-02T12:03:52;99588.78;;;30.13;35.13
75891;BME280;64571;47.512;19.054;2023-07-02T12:06:55;99586.56;;;30.63;34.26
75891;BME280;64571;47.512;19.054;2023-07-02T12:09:57;99600.16;;;30.17;35.61
75891;BME280;64571;47.512;19.054;2023-07-02T12:13:00;99597.25;;;30.33;34.95
75891;BME280;64571;47.512;19.054;2023-07-02T12:16:02;99592.53;;;29.65;35.92
75891;BME280;64571;47.512;19.054;2023-07-02T12:19:05;99591.97;;;29.86;35.88
75891;BME280;64571;47.512;19.054;2023-07-02T12:22:07;99589.72;;;29.29;36.61
75891;BME280;64571;47.512;19.054;2023-07-02T12:25:10;99587.28;;;29.43;36.89
75891;BME280;64571;47.512;19.054;2023-07-02T12:28:14;99581.34;;;29.18;37.56
75891;BME280;64571;47.512;19.054;2023-07-02T12:31:16;99586.47;;;30.08;36.37
75891;BME280;64571;47.512;19.054;2023-07-02T12:34:19;99592.16;;;30.24;35.85
75891;BME280;64571;47.512;19.054;2023-07-02T12:37:21;99586.53;;;30.50;35.29
75891;BME280;64571;47.512;19.054;2023-07-02T12:40:24;99592.69;;;30.48;35.87
75891;BME280;64571;47.512;19.054;2023-07-02T12:43:27;99589.91;;;30.32;35.40
75891;BME280;64571;47.512;19.054;2023-07-02T12:46:29;99583.28;;;30.35;35.44
75891;BME280;64571;47.512;19.054;2023-07-02T12:49:32;99600.59;;;30.15;34.38
75891;BME280;64571;47.512;19.054;2023-07-02T12:52:34;99579.75;;;30.15;34.35
75891;BME280;64571;47.512;19.054;2023-07-02T12:55:37;99607.75;;;30.23;34.55
75891;BME280;64571;47.512;19.054;2023-07-02T12:58:40;99592.28;;;30.05;34.74
75891;BME280;64571;47.512;19.054;2023-07-02T13:01:42;99583.66;;;30.21;34.48
75891;BME280;64571;47.512;19.054;2023-07-02T13:04:45;99579.41;;;29.80;35.48
75891;BME280;64571;47.512;19.054;2023-07-02T13:07:47;99582.19;;;29.67;36.03
75891;BME280;64571;47.512;19.054;2023-07-02T13:10:50;99583.28;;;29.73;36.33
75891;BME280;64571;47.512;19.054;2023-07-02T13:13:52;99590.84;;;30.13;35.85
75891;BME280;64571;47.512;19.054;2023-07-02T13:16:55;99583.00;;;29.84;36.26
75891;BME280;64571;47.512;19.054;2023-07-02T13:19:57;99599.03;;;29.65;36.28
75891;BME280;64571;47.512;19.054;2023-07-02T13:23:00;99586.78;;;29.81;35.88
75891;BME280;64571;47.512;19.054;2023-07-02T13:26:02;99583.09;;;29.81;35.67
75891;BME280;64571;47.512;19.054;2023-07-02T13:29:05;99591.03;;;30.22;34.66
75891;BME280;64571;47.512;19.054;2023-07-02T13:32:07;99589.59;;;30.72;33.34
75891;BME280;64571;47.512;19.054;2023-07-02T13:35:10;99589.44;;;30.75;32.58
75891;BME280;64571;47.512;19.054;2023-07-02T13:38:13;99585.56;;;30.82;32.53
75891;BME280;64571;47.512;19.054;2023-07-02T13:41:15;99576.31;;;30.49;32.94
75891;BME280;64571;47.512;19.054;2023-07-02T13:44:18;99592.13;;;30.95;32.25
75891;BME280;64571;47.512;19.054;2023-07-02T13:47:21;99588.69;;;31.00;31.94
75891;BME280;64571;47.512;19.054;2023-07-02T13:50:23;99585.94;;;31.10;32.12
75891;BME280;64571;47.512;19.054;2023-07-02T13:53:26;99574.66;;;30.77;32.71
75891;BME280;64571;47.512;19.054;2023-07-02T13:56:28;99582.16;;;30.45;33.25
75891;BME280;64571;47.512;19.054;2023-07-02T13:59:31;99579.22;;;30.33;33.65
75891;BME280;64571;47.512;19.054;2023-07-02T14:02:33;99580.53;;;30.15;34.27
75891;BME280;64571;47.512;19.054;2023-07-02T14:05:36;99581.41;;;29.50;35.27
75891;BME280;64571;47.512;19.054;2023-07-02T14:08:38;99574.50;;;29.32;35.90
75891;BME280;64571;47.512;19.054;2023-07-02T14:11:41;99582.09;;;29.22;36.05
75891;BME280;64571;47.512;19.054;2023-07-02T14:14:45;99579.75;;;29.49;35.74
75891;BME280;64571;47.512;19.054;2023-07-02T14:17:49;99587.69;;;29.62;35.40
75891;BME280;64571;47.512;19.054;2023-07-02T14:20:51;99590.19;;;29.60;35.39
75891;BME280;64571;47.512;19.054;2023-07-02T14:23:54;99581.84;;;29.82;35.17
75891;BME280;64571;47.512;19.054;2023-07-02T14:26:56;99587.94;;;29.51;35.55
75891;BME280;64571;47.512;19.054;2023-07-02T14:29:59;99586.56;;;29.39;36.45
75891;BME280;64571;47.512;19.054;2023-07-02T14:33:03;99582.28;;;29.31;36.50
75891;BME280;64571;47.512;19.054;2023-07-02T14:36:07;99587.94;;;29.67;36.15
75891;BME280;64571;47.512;19.054;2023-07-02T14:39:09;99588.38;;;29.33;36.70
75891;BME280;64571;47.512;19.054;2023-07-02T14:42:12;99594.44;;;29.19;37.12
75891;BME280;64571;47.512;19.054;2023-07-02T14:45:15;99603.44;;;29.70;36.26
75891;BME280;64571;47.512;19.054;2023-07-02T14:48:18;99595.47;;;29.77;36.28
75891;BME280;64571;47.512;19.054;2023-07-02T14:51:20;99598.03;;;29.88;36.18
75891;BME280;64571;47.512;19.054;2023-07-02T14:54:23;99605.00;;;30.04;35.76
75891;BME280;64571;47.512;19.054;2023-07-02T14:57:26;99608.62;;;29.75;36.58
75891;BME280;64571;47.512;19.054;2023-07-02T15:00:28;99598.94;;;29.85;36.34
75891;BME280;64571;47.512;19.054;2023-07-02T15:03:31;99600.88;;;30.05;36.17
75891;BME280;64571;47.512;19.054;2023-07-02T15:06:35;99603.19;;;30.10;36.20
75891;BME280;64571;47.512;19.054;2023-07-02T15:09:37;99612.66;;;29.61;37.16
75891;BME280;64571;47.512;19.054;2023-07-02T15:12:40;99605.13;;;29.51;37.32
75891;BME280;64571;47.512;19.054;2023-07-02T15:15:43;99599.88;;;29.13;37.77
75891;BME280;64571;47.512;19.054;2023-07-02T15:18:46;99604.78;;;29.13;37.81
75891;BME280;64571;47.512;19.054;2023-07-02T15:21:48;99596.25;;;29.45;37.43
75891;BME280;64571;47.512;19.054;2023-07-02T15:24:51;99590.19;;;29.60;36.19
75891;BME280;64571;47.512;19.054;2023-07-02T15:27:53;99603.97;;;29.81;34.95
75891;BME280;64571;47.512;19.054;2023-07-02T15:31:03;99604.47;;;29.43;34.95
75891;BME280;64571;47.512;19.054;2023-07-02T15:34:06;99610.09;;;28.94;35.47
75891;BME280;64571;47.512;19.054;2023-07-02T15:37:09;99614.22;;;28.93;35.84
75891;BME280;64571;47.512;19.054;2023-07-02T15:40:11;99599.72;;;29.20;34.85
75891;BME280;64571;47.512;19.054;2023-07-02T15:43:14;99600.53;;;29.21;35.16
75891;BME280;64571;47.512;19.054;2023-07-02T15:46:17;99611.31;;;29.13;35.42
75891;BME280;64571;47.512;19.054;2023-07-02T15:49:21;99626.31;;;28.81;34.77
75891;BME280;64571;47.512;19.054;2023-07-02T15:52:24;99617.16;;;28.90;34.29
75891;BME280;64571;47.512;19.054;2023-07-02T15:55:26;99615.22;;;29.23;33.69
75891;BME280;64571;47.512;19.054;2023-07-02T15:58:30;99610.38;;;29.20;33.45
75891;BME280;64571;47.512;19.054;2023-07-02T16:01:35;99618.03;;;29.07;33.83